Skaelskor, Denmark
Current Conditions -  °F | °C
As of 8:50 PM on Sunday 23 Nov 2014 (Local Time) from EKAV Reporting Station
Broken Clouds Broken Clouds  
Wind Chill: 38°   Ceiling: 1000
Heat Index: 48°   Visibility: 6mi
Dew Point: 43°   Wind: 40mph
Humidity: 82%   Direction: 150°SSE
Pressure: 30.03"   Gusts: NA
Location:  55.25°N, 11.29°E
Report Text: EKAV 231950Z AUTO 15035KT 9999NDV BKN010/// BKN150///09/06 Q1017
Loading
Personal Weather Stations






























Interactive Weather Map New forecast layout! Learn more

10-Day Weather Forecast

Advertisements
Track Severe Weather on mobile